Accueil
METAR-TAF:

METAR-TAF

Aéroports :

Aéroport de Brême

Brême, Allemagne

latitude: 53-03N, longitude: 008-48E, altitude: 3 m

Observation

Le bulletin a été fait il y a 1 heure et 19 minutes, à 12:50 UTC
Vent 10 kt de est/nord-est, variant entre nord/nord-est et est
Température 23°C
Humidité 36%
Pression 1023 hPa
Visibilité 10 km ou plus
pas de nuages en-dessous de 1500 mètres et pas de cumulonimbus.

METAR: EDDW 011250Z 06010KT 020V100 CAVOK 23/07 Q1023 NOSIG

Heure: 16:09 (14:09 UTC)

Prévision

Le bulletin a été fait il y a 3 heures et 9 minutes, à 11:00 UTC
Prévision valable du 01 à 12 UTC au 02 à 12 UTC
Vent 10 kt de est/nord-est
Visibilité 10 km ou plus
pas de nuages en-dessous de 1500 mètres et pas de cumulonimbus.
Evoluant progressivement
du 01 à 19 UTC au 01 à 22 UTC
Vent 5 kt de est

TAF: EDDW 011100Z 0112/0212 07010KT CAVOK BECMG 0119/0122 10005KT

Observations et prévisions météorologiques de plus de 4000 aéroports (messages METAR et TAF).

Les stations disponibles sont représentées par des disques jaunes et rouges sur la carte.

Passer la souris dessus pour voir le nom de la station.

Cliquer dessus pour voir les observations et prévisions météorologiques.

Pour changer de carte: cliquez sur les boutons verts avec une croix noire pour zoomer, sur le bouton vert avec un tiret pour effectuer un zoom arrière, ou sur les flèches vertes pour les cartes adjacentes.


METAR-TAF: